sensor_id;sensor_type;location;lat;lon;timestamp;P1;durP1;ratioP1;P2;durP2;ratioP2
17524;SDS011;40431;52.198;9.902;2024-03-07T00:01:58;24.77;;;22.57;;
17524;SDS011;40431;52.198;9.902;2024-03-07T00:04:43;25.30;;;23.30;;
17524;SDS011;40431;52.198;9.902;2024-03-07T00:07:13;24.53;;;22.60;;
17524;SDS011;40431;52.198;9.902;2024-03-07T00:09:46;24.03;;;21.90;;
17524;SDS011;40431;52.198;9.902;2024-03-07T00:12:26;23.93;;;21.90;;
17524;SDS011;40431;52.198;9.902;2024-03-07T00:14:57;24.87;;;22.77;;
17524;SDS011;40431;52.198;9.902;2024-03-07T00:17:27;24.20;;;22.20;;
17524;SDS011;40431;52.198;9.902;2024-03-07T00:20:04;24.83;;;22.90;;
17524;SDS011;40431;52.198;9.902;2024-03-07T00:22:43;23.63;;;21.70;;
17524;SDS011;40431;52.198;9.902;2024-03-07T00:25:11;22.87;;;20.97;;
17524;SDS011;40431;52.198;9.902;2024-03-07T00:27:45;25.50;;;22.03;;
17524;SDS011;40431;52.198;9.902;2024-03-07T00:30:25;23.20;;;21.10;;
17524;SDS011;40431;52.198;9.902;2024-03-07T00:32:56;22.70;;;20.90;;
17524;SDS011;40431;52.198;9.902;2024-03-07T00:35:27;24.87;;;22.87;;
17524;SDS011;40431;52.198;9.902;2024-03-07T00:38:06;23.73;;;21.77;;
17524;SDS011;40431;52.198;9.902;2024-03-07T00:40:34;23.70;;;21.70;;
17524;SDS011;40431;52.198;9.902;2024-03-07T00:43:02;23.17;;;21.10;;
17524;SDS011;40431;52.198;9.902;2024-03-07T00:45:38;23.83;;;21.73;;
17524;SDS011;40431;52.198;9.902;2024-03-07T00:48:09;23.20;;;21.23;;
17524;SDS011;40431;52.198;9.902;2024-03-07T00:50:44;22.67;;;20.87;;
17524;SDS011;40431;52.198;9.902;2024-03-07T00:53:18;22.93;;;20.97;;
17524;SDS011;40431;52.198;9.902;2024-03-07T00:55:50;25.03;;;22.47;;
17524;SDS011;40431;52.198;9.902;2024-03-07T00:58:27;34.07;;;23.07;;
17524;SDS011;40431;52.198;9.902;2024-03-07T01:01:03;22.57;;;20.70;;
17524;SDS011;40431;52.198;9.902;2024-03-07T01:03:37;21.63;;;19.73;;
17524;SDS011;40431;52.198;9.902;2024-03-07T01:06:05;23.17;;;21.27;;
17524;SDS011;40431;52.198;9.902;2024-03-07T01:08:49;19.93;;;18.27;;
17524;SDS011;40431;52.198;9.902;2024-03-07T01:11:20;21.60;;;19.87;;
17524;SDS011;40431;52.198;9.902;2024-03-07T01:13:49;23.47;;;21.23;;
17524;SDS011;40431;52.198;9.902;2024-03-07T01:16:17;23.47;;;21.47;;
17524;SDS011;40431;52.198;9.902;2024-03-07T01:18:49;24.83;;;22.57;;
17524;SDS011;40431;52.198;9.902;2024-03-07T01:21:29;21.77;;;19.90;;
17524;SDS011;40431;52.198;9.902;2024-03-07T01:24:02;21.23;;;19.07;;
17524;SDS011;40431;52.198;9.902;2024-03-07T01:26:31;23.87;;;21.67;;
17524;SDS011;40431;52.198;9.902;2024-03-07T01:29:00;22.87;;;20.83;;
17524;SDS011;40431;52.198;9.902;2024-03-07T01:31:39;21.37;;;19.37;;
17524;SDS011;40431;52.198;9.902;2024-03-07T01:34:12;21.37;;;19.57;;
17524;SDS011;40431;52.198;9.902;2024-03-07T01:36:49;21.13;;;19.23;;
17524;SDS011;40431;52.198;9.902;2024-03-07T01:39:25;20.57;;;18.63;;
17524;SDS011;40431;52.198;9.902;2024-03-07T01:42:08;22.00;;;20.07;;
17524;SDS011;40431;52.198;9.902;2024-03-07T01:44:34;23.13;;;21.23;;
17524;SDS011;40431;52.198;9.902;2024-03-07T01:47:01;22.87;;;20.53;;
17524;SDS011;40431;52.198;9.902;2024-03-07T01:49:28;22.50;;;20.47;;
17524;SDS011;40431;52.198;9.902;2024-03-07T01:51:55;23.03;;;21.10;;
17524;SDS011;40431;52.198;9.902;2024-03-07T01:54:23;20.97;;;19.27;;
17524;SDS011;40431;52.198;9.902;2024-03-07T01:56:50;22.03;;;20.13;;
17524;SDS011;40431;52.198;9.902;2024-03-07T01:59:17;23.80;;;21.57;;
17524;SDS011;40431;52.198;9.902;2024-03-07T02:01:45;22.50;;;20.43;;
17524;SDS011;40431;52.198;9.902;2024-03-07T02:04:12;21.43;;;19.53;;
17524;SDS011;40431;52.198;9.902;2024-03-07T02:06:39;22.57;;;20.57;;
17524;SDS011;40431;52.198;9.902;2024-03-07T02:09:06;20.20;;;18.50;;
17524;SDS011;40431;52.198;9.902;2024-03-07T02:11:36;22.47;;;20.47;;
17524;SDS011;40431;52.198;9.902;2024-03-07T02:14:02;23.40;;;21.50;;
17524;SDS011;40431;52.198;9.902;2024-03-07T02:16:29;22.40;;;20.50;;
17524;SDS011;40431;52.198;9.902;2024-03-07T02:18:55;21.77;;;19.97;;
17524;SDS011;40431;52.198;9.902;2024-03-07T02:21:23;21.73;;;20.13;;
17524;SDS011;40431;52.198;9.902;2024-03-07T02:23:50;21.93;;;20.33;;
17524;SDS011;40431;52.198;9.902;2024-03-07T02:26:16;20.70;;;19.00;;
17524;SDS011;40431;52.198;9.902;2024-03-07T02:28:43;20.87;;;18.97;;
17524;SDS011;40431;52.198;9.902;2024-03-07T02:31:10;21.13;;;19.43;;
17524;SDS011;40431;52.198;9.902;2024-03-07T02:33:37;20.90;;;19.10;;
17524;SDS011;40431;52.198;9.902;2024-03-07T02:36:03;22.13;;;20.03;;
17524;SDS011;40431;52.198;9.902;2024-03-07T02:38:31;22.70;;;20.93;;
17524;SDS011;40431;52.198;9.902;2024-03-07T02:40:59;24.63;;;22.10;;
17524;SDS011;40431;52.198;9.902;2024-03-07T02:43:26;22.07;;;20.27;;
17524;SDS011;40431;52.198;9.902;2024-03-07T02:45:52;23.97;;;21.87;;
17524;SDS011;40431;52.198;9.902;2024-03-07T02:48:19;22.77;;;20.90;;
17524;SDS011;40431;52.198;9.902;2024-03-07T02:50:46;21.97;;;20.17;;
17524;SDS011;40431;52.198;9.902;2024-03-07T02:53:12;22.00;;;20.10;;
17524;SDS011;40431;52.198;9.902;2024-03-07T02:55:40;21.10;;;19.43;;
17524;SDS011;40431;52.198;9.902;2024-03-07T02:58:07;21.10;;;19.40;;
17524;SDS011;40431;52.198;9.902;2024-03-07T03:00:33;21.57;;;19.97;;
17524;SDS011;40431;52.198;9.902;2024-03-07T03:02:59;21.50;;;19.60;;
17524;SDS011;40431;52.198;9.902;2024-03-07T03:05:26;21.73;;;20.03;;
17524;SDS011;40431;52.198;9.902;2024-03-07T03:07:52;22.83;;;20.90;;
17524;SDS011;40431;52.198;9.902;2024-03-07T03:10:19;22.07;;;20.37;;
17524;SDS011;40431;52.198;9.902;2024-03-07T03:12:51;20.97;;;19.37;;
17524;SDS011;40431;52.198;9.902;2024-03-07T03:15:18;21.50;;;19.73;;
17524;SDS011;40431;52.198;9.902;2024-03-07T03:17:46;20.80;;;18.90;;
17524;SDS011;40431;52.198;9.902;2024-03-07T03:20:12;22.03;;;20.13;;
17524;SDS011;40431;52.198;9.902;2024-03-07T03:22:49;22.93;;;20.93;;
17524;SDS011;40431;52.198;9.902;2024-03-07T03:25:16;22.57;;;20.13;;
17524;SDS011;40431;52.198;9.902;2024-03-07T03:27:43;23.33;;;21.20;;
17524;SDS011;40431;52.198;9.902;2024-03-07T03:30:11;23.10;;;21.20;;
17524;SDS011;40431;52.198;9.902;2024-03-07T03:32:39;21.80;;;20.07;;
17524;SDS011;40431;52.198;9.902;2024-03-07T03:35:06;23.40;;;21.57;;
17524;SDS011;40431;52.198;9.902;2024-03-07T03:37:38;24.20;;;22.20;;
17524;SDS011;40431;52.198;9.902;2024-03-07T03:40:05;22.77;;;20.67;;
17524;SDS011;40431;52.198;9.902;2024-03-07T03:42:34;23.23;;;21.33;;
17524;SDS011;40431;52.198;9.902;2024-03-07T03:45:01;25.43;;;23.23;;
17524;SDS011;40431;52.198;9.902;2024-03-07T03:47:29;26.43;;;23.83;;
17524;SDS011;40431;52.198;9.902;2024-03-07T03:49:56;25.17;;;22.77;;
17524;SDS011;40431;52.198;9.902;2024-03-07T03:52:22;25.73;;;23.47;;
17524;SDS011;40431;52.198;9.902;2024-03-07T03:54:49;25.60;;;23.10;;
17524;SDS011;40431;52.198;9.902;2024-03-07T03:57:15;26.97;;;23.97;;
17524;SDS011;40431;52.198;9.902;2024-03-07T03:59:43;25.43;;;22.93;;
17524;SDS011;40431;52.198;9.902;2024-03-07T04:02:10;25.30;;;23.00;;
17524;SDS011;40431;52.198;9.902;2024-03-07T04:04:39;25.83;;;23.63;;
17524;SDS011;40431;52.198;9.902;2024-03-07T04:07:06;24.07;;;21.93;;
17524;SDS011;40431;52.198;9.902;2024-03-07T04:09:32;31.13;;;28.20;;
17524;SDS011;40431;52.198;9.902;2024-03-07T04:11:59;29.00;;;26.23;;
17524;SDS011;40431;52.198;9.902;2024-03-07T04:14:25;31.00;;;28.10;;
17524;SDS011;40431;52.198;9.902;2024-03-07T04:16:52;28.20;;;25.80;;
17524;SDS011;40431;52.198;9.902;2024-03-07T04:19:21;27.03;;;24.73;;
17524;SDS011;40431;52.198;9.902;2024-03-07T04:21:49;26.93;;;24.57;;
17524;SDS011;40431;52.198;9.902;2024-03-07T04:24:16;25.00;;;22.90;;
17524;SDS011;40431;52.198;9.902;2024-03-07T04:26:43;25.57;;;23.33;;
17524;SDS011;40431;52.198;9.902;2024-03-07T04:29:09;24.43;;;22.50;;
17524;SDS011;40431;52.198;9.902;2024-03-07T04:31:36;26.27;;;23.93;;
17524;SDS011;40431;52.198;9.902;2024-03-07T04:34:02;24.07;;;22.03;;
17524;SDS011;40431;52.198;9.902;2024-03-07T04:36:29;25.83;;;23.30;;
17524;SDS011;40431;52.198;9.902;2024-03-07T04:38:58;23.50;;;21.63;;
17524;SDS011;40431;52.198;9.902;2024-03-07T04:41:25;24.43;;;22.23;;
17524;SDS011;40431;52.198;9.902;2024-03-07T04:43:51;23.13;;;21.33;;
17524;SDS011;40431;52.198;9.902;2024-03-07T04:46:19;24.57;;;22.47;;
17524;SDS011;40431;52.198;9.902;2024-03-07T04:48:45;26.73;;;24.33;;
17524;SDS011;40431;52.198;9.902;2024-03-07T04:51:12;30.40;;;27.43;;
17524;SDS011;40431;52.198;9.902;2024-03-07T04:53:39;24.10;;;21.90;;
17524;SDS011;40431;52.198;9.902;2024-03-07T04:56:08;23.53;;;21.40;;
17524;SDS011;40431;52.198;9.902;2024-03-07T04:58:35;24.37;;;22.07;;
17524;SDS011;40431;52.198;9.902;2024-03-07T05:01:02;25.07;;;22.73;;
17524;SDS011;40431;52.198;9.902;2024-03-07T05:03:29;34.60;;;31.00;;
17524;SDS011;40431;52.198;9.902;2024-03-07T05:05:55;35.17;;;31.37;;
17524;SDS011;40431;52.198;9.902;2024-03-07T05:08:22;25.30;;;23.27;;
17524;SDS011;40431;52.198;9.902;2024-03-07T05:10:49;22.90;;;21.00;;
17524;SDS011;40431;52.198;9.902;2024-03-07T05:13:18;22.70;;;20.93;;
17524;SDS011;40431;52.198;9.902;2024-03-07T05:15:45;22.37;;;20.37;;
17524;SDS011;40431;52.198;9.902;2024-03-07T05:18:11;22.47;;;20.77;;
17524;SDS011;40431;52.198;9.902;2024-03-07T05:20:39;22.90;;;20.67;;
17524;SDS011;40431;52.198;9.902;2024-03-07T05:23:05;24.10;;;22.20;;
17524;SDS011;40431;52.198;9.902;2024-03-07T05:25:32;23.07;;;21.20;;
17524;SDS011;40431;52.198;9.902;2024-03-07T05:27:59;26.20;;;23.80;;
17524;SDS011;40431;52.198;9.902;2024-03-07T05:30:28;24.03;;;21.93;;
17524;SDS011;40431;52.198;9.902;2024-03-07T05:32:56;25.70;;;23.37;;
17524;SDS011;40431;52.198;9.902;2024-03-07T05:35:23;26.63;;;24.10;;
17524;SDS011;40431;52.198;9.902;2024-03-07T05:37:50;25.27;;;23.00;;
17524;SDS011;40431;52.198;9.902;2024-03-07T05:40:16;28.07;;;25.50;;
17524;SDS011;40431;52.198;9.902;2024-03-07T05:42:43;25.80;;;23.60;;
17524;SDS011;40431;52.198;9.902;2024-03-07T05:45:09;26.87;;;24.57;;
17524;SDS011;40431;52.198;9.902;2024-03-07T05:47:37;27.27;;;24.70;;
17524;SDS011;40431;52.198;9.902;2024-03-07T05:50:04;26.03;;;23.70;;
17524;SDS011;40431;52.198;9.902;2024-03-07T05:52:33;27.33;;;24.63;;
17524;SDS011;40431;52.198;9.902;2024-03-07T05:55:00;26.50;;;24.03;;
17524;SDS011;40431;52.198;9.902;2024-03-07T05:57:27;27.93;;;25.23;;
17524;SDS011;40431;52.198;9.902;2024-03-07T05:59:53;26.57;;;24.20;;
17524;SDS011;40431;52.198;9.902;2024-03-07T06:02:21;26.90;;;24.30;;
17524;SDS011;40431;52.198;9.902;2024-03-07T06:04:49;25.47;;;23.27;;
17524;SDS011;40431;52.198;9.902;2024-03-07T06:07:16;27.13;;;24.70;;
17524;SDS011;40431;52.198;9.902;2024-03-07T06:09:42;25.93;;;23.17;;
17524;SDS011;40431;52.198;9.902;2024-03-07T06:12:09;27.27;;;24.80;;
17524;SDS011;40431;52.198;9.902;2024-03-07T06:14:35;28.43;;;25.70;;
17524;SDS011;40431;52.198;9.902;2024-03-07T06:17:02;30.17;;;26.63;;
17524;SDS011;40431;52.198;9.902;2024-03-07T06:19:28;28.17;;;25.40;;
17524;SDS011;40431;52.198;9.902;2024-03-07T06:21:57;28.43;;;25.50;;
17524;SDS011;40431;52.198;9.902;2024-03-07T06:24:23;30.10;;;26.83;;
17524;SDS011;40431;52.198;9.902;2024-03-07T06:26:52;30.17;;;26.27;;
17524;SDS011;40431;52.198;9.902;2024-03-07T06:29:25;30.13;;;25.73;;
17524;SDS011;40431;52.198;9.902;2024-03-07T06:31:52;28.43;;;25.50;;
17524;SDS011;40431;52.198;9.902;2024-03-07T06:34:20;38.37;;;27.13;;
17524;SDS011;40431;52.198;9.902;2024-03-07T06:36:46;36.83;;;27.50;;
17524;SDS011;40431;52.198;9.902;2024-03-07T06:39:14;34.87;;;27.77;;
17524;SDS011;40431;52.198;9.902;2024-03-07T06:41:40;31.40;;;26.17;;
17524;SDS011;40431;52.198;9.902;2024-03-07T06:44:07;30.37;;;26.93;;
17524;SDS011;40431;52.198;9.902;2024-03-07T06:46:34;35.23;;;27.23;;
17524;SDS011;40431;52.198;9.902;2024-03-07T06:49:01;42.93;;;28.40;;
17524;SDS011;40431;52.198;9.902;2024-03-07T06:51:27;38.83;;;27.53;;
17524;SDS011;40431;52.198;9.902;2024-03-07T06:53:54;47.30;;;27.17;;
17524;SDS011;40431;52.198;9.902;2024-03-07T06:56:22;36.03;;;28.00;;
17524;SDS011;40431;52.198;9.902;2024-03-07T06:58:49;34.87;;;27.03;;
17524;SDS011;40431;52.198;9.902;2024-03-07T07:01:15;43.80;;;29.50;;
17524;SDS011;40431;52.198;9.902;2024-03-07T07:03:43;38.27;;;28.73;;
17524;SDS011;40431;52.198;9.902;2024-03-07T07:06:11;35.63;;;28.73;;
17524;SDS011;40431;52.198;9.902;2024-03-07T07:08:37;32.37;;;28.43;;
17524;SDS011;40431;52.198;9.902;2024-03-07T07:11:04;47.03;;;29.77;;
17524;SDS011;40431;52.198;9.902;2024-03-07T07:13:32;38.30;;;28.77;;
17524;SDS011;40431;52.198;9.902;2024-03-07T07:15:58;30.97;;;27.67;;
17524;SDS011;40431;52.198;9.902;2024-03-07T07:18:26;38.07;;;28.47;;
17524;SDS011;40431;52.198;9.902;2024-03-07T07:20:52;41.00;;;28.73;;
17524;SDS011;40431;52.198;9.902;2024-03-07T07:23:19;32.17;;;28.33;;
17524;SDS011;40431;52.198;9.902;2024-03-07T07:25:46;32.80;;;28.23;;
17524;SDS011;40431;52.198;9.902;2024-03-07T07:28:12;35.47;;;28.10;;
17524;SDS011;40431;52.198;9.902;2024-03-07T07:30:41;36.17;;;28.03;;
17524;SDS011;40431;52.198;9.902;2024-03-07T07:33:08;39.20;;;28.33;;
17524;SDS011;40431;52.198;9.902;2024-03-07T07:35:34;40.40;;;30.67;;
17524;SDS011;40431;52.198;9.902;2024-03-07T07:38:02;33.30;;;29.07;;
17524;SDS011;40431;52.198;9.902;2024-03-07T07:40:28;38.43;;;29.00;;
17524;SDS011;40431;52.198;9.902;2024-03-07T07:42:56;45.50;;;31.23;;
17524;SDS011;40431;52.198;9.902;2024-03-07T07:45:22;44.33;;;30.77;;
17524;SDS011;40431;52.198;9.902;2024-03-07T07:47:52;42.87;;;29.80;;
17524;SDS011;40431;52.198;9.902;2024-03-07T07:50:19;46.97;;;35.77;;
17524;SDS011;40431;52.198;9.902;2024-03-07T07:52:47;59.83;;;41.47;;
17524;SDS011;40431;52.198;9.902;2024-03-07T07:55:15;47.23;;;34.10;;
17524;SDS011;40431;52.198;9.902;2024-03-07T07:57:42;51.00;;;33.30;;
17524;SDS011;40431;52.198;9.902;2024-03-07T08:00:11;43.73;;;30.90;;
17524;SDS011;40431;52.198;9.902;2024-03-07T08:02:51;55.63;;;33.70;;
17524;SDS011;40431;52.198;9.902;2024-03-07T08:05:22;63.93;;;34.20;;
17524;SDS011;40431;52.198;9.902;2024-03-07T08:07:56;57.87;;;33.07;;
17524;SDS011;40431;52.198;9.902;2024-03-07T08:10:29;54.73;;;32.80;;
17524;SDS011;40431;52.198;9.902;2024-03-07T08:13:03;53.03;;;34.43;;
17524;SDS011;40431;52.198;9.902;2024-03-07T08:15:35;55.07;;;34.07;;
17524;SDS011;40431;52.198;9.902;2024-03-07T08:18:16;59.50;;;34.60;;
17524;SDS011;40431;52.198;9.902;2024-03-07T08:20:50;55.23;;;32.93;;
17524;SDS011;40431;52.198;9.902;2024-03-07T08:23:21;55.33;;;34.77;;
17524;SDS011;40431;52.198;9.902;2024-03-07T08:26:06;56.77;;;34.60;;
17524;SDS011;40431;52.198;9.902;2024-03-07T08:28:36;52.80;;;32.60;;
17524;SDS011;40431;52.198;9.902;2024-03-07T08:31:05;50.43;;;33.20;;
17524;SDS011;40431;52.198;9.902;2024-03-07T08:33:38;55.33;;;34.37;;
17524;SDS011;40431;52.198;9.902;2024-03-07T08:36:10;48.47;;;32.77;;
17524;SDS011;40431;52.198;9.902;2024-03-07T08:38:53;62.20;;;33.20;;
17524;SDS011;40431;52.198;9.902;2024-03-07T08:44:18;50.33;;;33.97;;
17524;SDS011;40431;52.198;9.902;2024-03-07T08:46:46;52.57;;;33.37;;
17524;SDS011;40431;52.198;9.902;2024-03-07T08:49:19;50.30;;;34.60;;
17524;SDS011;40431;52.198;9.902;2024-03-07T08:51:51;57.03;;;34.73;;
17524;SDS011;40431;52.198;9.902;2024-03-07T08:54:21;52.27;;;33.80;;
17524;SDS011;40431;52.198;9.902;2024-03-07T08:56:52;58.07;;;34.53;;
17524;SDS011;40431;52.198;9.902;2024-03-07T08:59:30;52.50;;;35.20;;
17524;SDS011;40431;52.198;9.902;2024-03-07T09:02:04;47.87;;;34.20;;
17524;SDS011;40431;52.198;9.902;2024-03-07T09:04:43;58.23;;;35.80;;
17524;SDS011;40431;52.198;9.902;2024-03-07T09:07:33;62.57;;;38.00;;
17524;SDS011;40431;52.198;9.902;2024-03-07T09:10:09;67.47;;;37.80;;
17524;SDS011;40431;52.198;9.902;2024-03-07T09:12:37;59.17;;;35.47;;
17524;SDS011;40431;52.198;9.902;2024-03-07T09:15:18;58.00;;;36.60;;
17524;SDS011;40431;52.198;9.902;2024-03-07T09:18:06;58.63;;;36.03;;
17524;SDS011;40431;52.198;9.902;2024-03-07T09:20:46;58.23;;;36.07;;
17524;SDS011;40431;52.198;9.902;2024-03-07T09:23:46;61.17;;;37.37;;
17524;SDS011;40431;52.198;9.902;2024-03-07T09:26:14;69.40;;;38.10;;
17524;SDS011;40431;52.198;9.902;2024-03-07T09:28:42;68.00;;;37.03;;
17524;SDS011;40431;52.198;9.902;2024-03-07T09:31:14;64.40;;;37.53;;
17524;SDS011;40431;52.198;9.902;2024-03-07T09:33:49;68.90;;;38.00;;
17524;SDS011;40431;52.198;9.902;2024-03-07T09:36:25;64.13;;;37.63;;
17524;SDS011;40431;52.198;9.902;2024-03-07T09:38:52;61.83;;;36.77;;
17524;SDS011;40431;52.198;9.902;2024-03-07T09:41:20;64.30;;;36.50;;
17524;SDS011;40431;52.198;9.902;2024-03-07T09:43:51;53.63;;;35.50;;
17524;SDS011;40431;52.198;9.902;2024-03-07T09:46:23;69.97;;;36.67;;
17524;SDS011;40431;52.198;9.902;2024-03-07T09:48:53;70.87;;;36.07;;
17524;SDS011;40431;52.198;9.902;2024-03-07T09:51:29;75.33;;;38.13;;
17524;SDS011;40431;52.198;9.902;2024-03-07T09:54:02;74.70;;;37.00;;
17524;SDS011;40431;52.198;9.902;2024-03-07T09:56:50;75.20;;;37.43;;
17524;SDS011;40431;52.198;9.902;2024-03-07T09:59:28;78.07;;;36.10;;
17524;SDS011;40431;52.198;9.902;2024-03-07T10:01:59;75.10;;;37.53;;
17524;SDS011;40431;52.198;9.902;2024-03-07T10:04:29;77.40;;;37.47;;
17524;SDS011;40431;52.198;9.902;2024-03-07T10:07:00;70.73;;;36.07;;
17524;SDS011;40431;52.198;9.902;2024-03-07T10:09:45;70.43;;;36.53;;
17524;SDS011;40431;52.198;9.902;2024-03-07T10:12:14;71.53;;;36.23;;
17524;SDS011;40431;52.198;9.902;2024-03-07T10:14:48;70.00;;;34.70;;
17524;SDS011;40431;52.198;9.902;2024-03-07T10:17:17;64.77;;;35.03;;
17524;SDS011;40431;52.198;9.902;2024-03-07T10:19:46;66.40;;;35.20;;
17524;SDS011;40431;52.198;9.902;2024-03-07T10:22:23;64.33;;;33.63;;
17524;SDS011;40431;52.198;9.902;2024-03-07T10:25:13;64.70;;;33.63;;
17524;SDS011;40431;52.198;9.902;2024-03-07T10:27:52;68.50;;;34.27;;
17524;SDS011;40431;52.198;9.902;2024-03-07T10:30:30;64.50;;;33.37;;
17524;SDS011;40431;52.198;9.902;2024-03-07T10:33:06;61.97;;;34.47;;
17524;SDS011;40431;52.198;9.902;2024-03-07T10:35:38;66.50;;;34.17;;
17524;SDS011;40431;52.198;9.902;2024-03-07T10:38:08;66.27;;;33.73;;
17524;SDS011;40431;52.198;9.902;2024-03-07T10:40:40;56.97;;;32.93;;
17524;SDS011;40431;52.198;9.902;2024-03-07T10:43:10;50.10;;;30.73;;
17524;SDS011;40431;52.198;9.902;2024-03-07T10:45:49;52.33;;;30.37;;
17524;SDS011;40431;52.198;9.902;2024-03-07T10:48:21;55.20;;;32.50;;
17524;SDS011;40431;52.198;9.902;2024-03-07T10:51:02;59.90;;;31.77;;
17524;SDS011;40431;52.198;9.902;2024-03-07T10:53:49;53.13;;;29.93;;
17524;SDS011;40431;52.198;9.902;2024-03-07T10:56:35;57.17;;;32.13;;
17524;SDS011;40431;52.198;9.902;2024-03-07T10:59:16;52.80;;;30.73;;
17524;SDS011;40431;52.198;9.902;2024-03-07T11:02:06;61.77;;;32.30;;
17524;SDS011;40431;52.198;9.902;2024-03-07T11:04:50;56.37;;;31.67;;
17524;SDS011;40431;52.198;9.902;2024-03-07T11:07:20;54.03;;;33.67;;
17524;SDS011;40431;52.198;9.902;2024-03-07T11:09:51;63.53;;;33.47;;
17524;SDS011;40431;52.198;9.902;2024-03-07T11:12:21;55.73;;;33.00;;
17524;SDS011;40431;52.198;9.902;2024-03-07T11:14:53;60.33;;;33.67;;
17524;SDS011;40431;52.198;9.902;2024-03-07T11:17:22;55.70;;;32.33;;
17524;SDS011;40431;52.198;9.902;2024-03-07T11:19:50;56.93;;;29.00;;
17524;SDS011;40431;52.198;9.902;2024-03-07T11:22:30;52.67;;;30.17;;
17524;SDS011;40431;52.198;9.902;2024-03-07T11:25:01;46.70;;;31.43;;
17524;SDS011;40431;52.198;9.902;2024-03-07T11:27:32;58.20;;;30.93;;
17524;SDS011;40431;52.198;9.902;2024-03-07T11:30:04;49.07;;;30.17;;
17524;SDS011;40431;52.198;9.902;2024-03-07T11:32:34;51.93;;;29.67;;
17524;SDS011;40431;52.198;9.902;2024-03-07T11:35:03;58.03;;;32.43;;
17524;SDS011;40431;52.198;9.902;2024-03-07T11:37:39;58.67;;;34.37;;
17524;SDS011;40431;52.198;9.902;2024-03-07T11:40:12;64.17;;;32.63;;
17524;SDS011;40431;52.198;9.902;2024-03-07T11:43:00;49.70;;;29.43;;
17524;SDS011;40431;52.198;9.902;2024-03-07T11:45:29;49.17;;;30.47;;
17524;SDS011;40431;52.198;9.902;2024-03-07T11:47:59;47.67;;;28.70;;
17524;SDS011;40431;52.198;9.902;2024-03-07T11:50:32;51.80;;;30.23;;
17524;SDS011;40431;52.198;9.902;2024-03-07T11:53:02;52.43;;;29.60;;
17524;SDS011;40431;52.198;9.902;2024-03-07T11:55:31;58.03;;;30.83;;
17524;SDS011;40431;52.198;9.902;2024-03-07T11:58:17;46.80;;;29.57;;
17524;SDS011;40431;52.198;9.902;2024-03-07T12:00:50;47.50;;;29.53;;
17524;SDS011;40431;52.198;9.902;2024-03-07T12:03:18;42.70;;;28.77;;
17524;SDS011;40431;52.198;9.902;2024-03-07T12:05:48;44.87;;;28.03;;
17524;SDS011;40431;52.198;9.902;2024-03-07T12:08:17;51.90;;;28.97;;
17524;SDS011;40431;52.198;9.902;2024-03-07T12:10:48;54.67;;;30.60;;
17524;SDS011;40431;52.198;9.902;2024-03-07T12:13:20;44.80;;;28.07;;
17524;SDS011;40431;52.198;9.902;2024-03-07T12:15:50;40.03;;;27.00;;
17524;SDS011;40431;52.198;9.902;2024-03-07T12:18:21;43.90;;;25.60;;
17524;SDS011;40431;52.198;9.902;2024-03-07T12:20:49;41.93;;;25.80;;
17524;SDS011;40431;52.198;9.902;2024-03-07T12:23:21;35.20;;;25.83;;
17524;SDS011;40431;52.198;9.902;2024-03-07T12:25:58;36.17;;;25.33;;
17524;SDS011;40431;52.198;9.902;2024-03-07T12:28:29;35.37;;;23.47;;
17524;SDS011;40431;52.198;9.902;2024-03-07T12:30:58;30.23;;;24.33;;
17524;SDS011;40431;52.198;9.902;2024-03-07T12:33:29;32.30;;;23.40;;
17524;SDS011;40431;52.198;9.902;2024-03-07T12:36:04;29.83;;;23.77;;
17524;SDS011;40431;52.198;9.902;2024-03-07T12:38:33;33.90;;;23.93;;
17524;SDS011;40431;52.198;9.902;2024-03-07T12:41:02;29.93;;;24.73;;
17524;SDS011;40431;52.198;9.902;2024-03-07T12:43:41;28.77;;;23.63;;
17524;SDS011;40431;52.198;9.902;2024-03-07T12:46:11;44.07;;;24.30;;
17524;SDS011;40431;52.198;9.902;2024-03-07T12:48:40;29.13;;;24.10;;
17524;SDS011;40431;52.198;9.902;2024-03-07T12:51:11;30.90;;;23.07;;
17524;SDS011;40431;52.198;9.902;2024-03-07T12:53:42;26.97;;;22.13;;
17524;SDS011;40431;52.198;9.902;2024-03-07T12:56:09;31.87;;;23.33;;
17524;SDS011;40431;52.198;9.902;2024-03-07T12:58:43;27.20;;;22.77;;
17524;SDS011;40431;52.198;9.902;2024-03-07T13:01:11;23.13;;;19.97;;
17524;SDS011;40431;52.198;9.902;2024-03-07T13:03:40;23.90;;;21.03;;
17524;SDS011;40431;52.198;9.902;2024-03-07T13:06:15;28.87;;;22.90;;
17524;SDS011;40431;52.198;9.902;2024-03-07T13:08:48;27.73;;;22.63;;
17524;SDS011;40431;52.198;9.902;2024-03-07T13:11:15;26.17;;;22.77;;
17524;SDS011;40431;52.198;9.902;2024-03-07T13:13:48;38.97;;;24.63;;
17524;SDS011;40431;52.198;9.902;2024-03-07T13:16:21;33.67;;;24.03;;
17524;SDS011;40431;52.198;9.902;2024-03-07T13:18:55;33.23;;;25.67;;
17524;SDS011;40431;52.198;9.902;2024-03-07T13:21:29;33.37;;;25.00;;
17524;SDS011;40431;52.198;9.902;2024-03-07T13:24:00;31.17;;;24.80;;
17524;SDS011;40431;52.198;9.902;2024-03-07T13:26:28;32.30;;;22.97;;
17524;SDS011;40431;52.198;9.902;2024-03-07T13:28:58;26.57;;;22.77;;
17524;SDS011;40431;52.198;9.902;2024-03-07T13:31:27;28.53;;;24.37;;
17524;SDS011;40431;52.198;9.902;2024-03-07T13:33:59;27.20;;;23.07;;
17524;SDS011;40431;52.198;9.902;2024-03-07T13:36:28;27.63;;;22.43;;
17524;SDS011;40431;52.198;9.902;2024-03-07T13:38:56;47.33;;;22.90;;
17524;SDS011;40431;52.198;9.902;2024-03-07T13:41:26;28.67;;;22.47;;
17524;SDS011;40431;52.198;9.902;2024-03-07T13:43:59;25.70;;;20.77;;
17524;SDS011;40431;52.198;9.902;2024-03-07T13:46:31;26.37;;;21.57;;
17524;SDS011;40431;52.198;9.902;2024-03-07T13:48:59;23.53;;;21.00;;
17524;SDS011;40431;52.198;9.902;2024-03-07T13:51:38;22.97;;;20.50;;
17524;SDS011;40431;52.198;9.902;2024-03-07T13:54:16;26.83;;;20.67;;
17524;SDS011;40431;52.198;9.902;2024-03-07T13:57:08;22.90;;;20.17;;
17524;SDS011;40431;52.198;9.902;2024-03-07T14:00:02;25.33;;;19.33;;
17524;SDS011;40431;52.198;9.902;2024-03-07T14:02:59;21.23;;;18.97;;
17524;SDS011;40431;52.198;9.902;2024-03-07T14:05:57;21.10;;;19.13;;
17524;SDS011;40431;52.198;9.902;2024-03-07T14:18:01;22.17;;;19.40;;
17524;SDS011;40431;52.198;9.902;2024-03-07T14:20:56;19.50;;;17.50;;
17524;SDS011;40431;52.198;9.902;2024-03-07T14:23:44;28.47;;;20.10;;
17524;SDS011;40431;52.198;9.902;2024-03-07T14:26:45;20.03;;;17.87;;
17524;SDS011;40431;52.198;9.902;2024-03-07T14:29:31;20.97;;;19.07;;
17524;SDS011;40431;52.198;9.902;2024-03-07T14:32:10;19.77;;;18.07;;
17524;SDS011;40431;52.198;9.902;2024-03-07T14:34:47;20.90;;;19.00;;
17524;SDS011;40431;52.198;9.902;2024-03-07T14:37:27;21.40;;;19.27;;
17524;SDS011;40431;52.198;9.902;2024-03-07T14:40:10;23.70;;;19.87;;
17524;SDS011;40431;52.198;9.902;2024-03-07T14:42:42;20.40;;;18.57;;
17524;SDS011;40431;52.198;9.902;2024-03-07T14:45:16;23.83;;;19.77;;
17524;SDS011;40431;52.198;9.902;2024-03-07T14:47:48;21.97;;;19.60;;
17524;SDS011;40431;52.198;9.902;2024-03-07T14:50:20;21.27;;;19.20;;
17524;SDS011;40431;52.198;9.902;2024-03-07T14:52:51;24.13;;;19.87;;
17524;SDS011;40431;52.198;9.902;2024-03-07T14:55:19;22.50;;;19.07;;
17524;SDS011;40431;52.198;9.902;2024-03-07T14:57:50;23.30;;;20.03;;